Latest Weather Observations for Ouse

IDT60801

Issued at 5:35 am EST Friday 19 September 2014 (issued every 30 minutes, with the page automatically refreshed every 10 minutes)

About weather observations | Map of weather stations | Latest weather observations for TAS | Other Formats
Station Details ID: 095048 Name: OUSE FIRE STATION Lat: -42.48 Lon: 146.71 Height: 90.0 m
Data from the previous 72 hours. | See also: Recent months at Ouse
Date/Time
EST
Temp
°C
App
Temp
°C
Dew
Point
Rel
Hum
%
Delta-T
°C
Wind Press
QNH
hPa
Press
MSL
hPa
Rain
since 9 am
mm
Dir
 
Spd
km/h
Gust
km/h
Spd
kts
Gust
kts
19/05:30am 10.1 5.2 5.3 72 2.2 W 20 28 11 15 1015.1 1015.3 2.6
19/05:00am 9.7 5.1 6.4 80 1.5 WNW 20 28 11 15 1015.0 1015.2 2.6
19/04:30am 9.8 5.1 6.0 77 1.8 WNW 20 30 11 16 1014.7 1014.9 2.6
19/04:00am 10.2 4.5 5.0 70 2.4 W 24 37 13 20 1014.7 1014.9 2.4
19/03:30am 10.0 4.8 5.4 73 2.1 W 22 43 12 23 1014.5 1014.7 2.4
19/03:00am 9.8 5.3 6.0 77 1.8 W 19 26 10 14 1014.7 1014.9 2.4
19/02:30am 9.9 5.4 5.9 76 1.8 WNW 19 24 10 13 1014.4 1014.6 2.4
19/02:00am 10.0 5.8 5.6 74 2.0 W 17 26 9 14 1014.6 1014.8 2.0
19/01:30am 9.9 5.2 5.1 72 2.2 W 19 32 10 17 1014.7 1014.9 2.0
19/01:00am 9.9 4.6 5.1 72 2.2 W 22 39 12 21 1014.8 1015.0 2.0
19/12:30am 9.5 5.2 5.3 75 1.9 NW 17 24 9 13 1014.9 1015.1 2.0
19/12:00am 9.3 4.6 5.3 76 1.8 NW 19 24 10 13 1015.0 1015.2 2.0
 
Date/Time
EST
Temp
°C
App
Temp
°C
Dew
Point
Rel
Hum
%
Delta-T
°C
Wind Press
QNH
hPa
Press
MSL
hPa
Rain
since 9 am
mm
Dir
 
Spd
km/h
Gust
km/h
Spd
kts
Gust
kts
18/11:30pm 9.3 4.9 4.9 74 2.0 WNW 17 32 9 17 1015.5 1015.7 1.8
18/11:00pm 9.1 3.7 4.5 73 2.0 WNW 22 33 12 18 1015.7 1015.9 1.8
18/10:30pm 8.8 3.8 3.6 70 2.3 WNW 19 35 10 19 1016.0 1016.2 1.8
18/10:00pm 9.0 4.0 3.6 69 2.3 W 19 26 10 14 1016.4 1016.5 1.8
18/09:30pm 8.3 4.6 4.5 77 1.7 W 13 22 7 12 1016.7 1016.8 1.8
18/09:00pm 8.7 3.9 4.5 75 1.9 W 19 24 10 13 1017.1 1017.2 1.8
18/08:30pm 8.8 4.0 4.6 75 1.9 W 19 26 10 14 1017.2 1017.3 1.8
18/08:00pm 8.9 4.5 4.5 74 1.9 W 17 28 9 15 1017.1 1017.2 1.8
18/07:30pm 8.7 4.2 4.3 74 1.9 W 17 28 9 15 1016.8 1016.9 1.8
18/07:00pm 8.4 3.1 4.8 78 1.6 W 22 28 12 15 1016.8 1016.9 1.8
18/06:30pm 10.0 5.4 3.5 64 2.8 WSW 17 26 9 14 1016.7 1016.8 1.8
18/06:00pm 10.3 4.3 3.1 61 3.1 W 24 35 13 19 1016.2 1016.3 1.8
18/05:30pm 10.1 4.9 3.4 63 2.9 W 20 32 11 17 1016.0 1016.2 1.8
18/05:00pm 9.7 4.9 4.5 70 2.3 WSW 19 28 10 15 1015.7 1015.9 1.8
18/04:30pm 9.5 4.2 4.9 73 2.1 WSW 22 30 12 16 1015.7 1015.9 1.8
18/04:16pm 10.0 3.6 5.2 72 2.2 WSW 28 41 15 22 1015.4 1015.6 1.6
18/04:00pm 11.4 8.6 7.1 75 2.1 WSW 11 17 6 9 1015.2 1015.4 1.6
18/03:30pm 9.3 5.5 6.0 80 1.5 WSW 15 26 8 14 1015.7 1015.9 1.4
18/03:00pm 9.4 6.4 5.8 78 1.7 WSW 11 28 6 15 1015.2 1015.4 1.0
18/02:30pm 10.1 4.7 4.5 68 2.5 W 22 41 12 22 1015.1 1015.3 0.0
18/02:00pm 12.7 6.7 3.6 54 4.1 W 24 43 13 23 1014.6 1014.8 0.0
18/01:37pm 12.2 5.5 3.7 56 3.8 W 28 46 15 25 1014.8 1015.0 0.0
18/01:30pm 12.3 5.5 3.0 53 4.1 W 28 35 15 19 1014.8 1015.0 0.0
18/01:00pm 12.0 4.8 3.0 54 4.0 WSW 30 54 16 29 1014.8 1015.0 0.0
18/12:30pm 12.0 5.2 3.3 55 3.9 W 28 50 15 27 1015.2 1015.4 0.0
18/12:15pm 12.4 5.7 3.9 56 3.8 WSW 28 46 15 25 1015.1 1015.3 0.0
18/12:00pm 12.0 6.1 4.0 58 3.6 W 24 37 13 20 1015.4 1015.6 0.0
18/11:38am 12.5 5.4 3.5 54 4.0 WSW 30 50 16 27 1015.7 1015.9 0.0
18/11:30am 12.9 7.0 4.1 55 4.0 WSW 24 44 13 24 1015.7 1015.9 0.0
18/11:00am 12.2 9.4 3.4 55 3.9 W 7 11 4 6 1016.3 1016.4 0.0
18/10:30am 11.5 6.4 3.3 57 3.6 SW 19 30 10 16 1016.5 1016.6 0.0
18/10:00am 11.9 7.6 5.3 64 3.1 W 17 30 9 16 1016.5 1016.6 0.0
18/09:30am 10.3 5.6 2.9 60 3.2 WSW 17 28 9 15 1016.4 1016.5 0.0
18/09:00am 8.6 3.8 2.8 67 2.5 W 17 22 9 12 1016.5 1016.6 0.6
18/08:30am 9.5 6.1 3.9 68 2.5 W 11 17 6 9 1016.0 1016.2 0.6
18/08:00am 8.2 4.7 3.5 72 2.0 WNW 11 17 6 9 1016.0 1016.2 0.6
18/07:30am 6.3 3.2 3.6 83 1.1 NNW 9 13 5 7 1015.7 1015.9 0.6
18/07:00am 5.0 1.8 2.9 86 0.9 N 9 13 5 7 1015.2 1015.4 0.6
18/06:30am 4.9 1.5 1.9 81 1.2 NNW 9 11 5 6 1014.8 1015.0 0.6
18/06:00am 6.1 1.6 2.4 77 1.5 WNW 15 20 8 11 1014.3 1014.5 0.6
18/05:30am 6.1 0.7 2.6 78 1.4 W 20 24 11 13 1013.9 1014.1 0.6
18/05:00am 6.1 0.9 2.6 78 1.4 W 19 24 10 13 1013.6 1013.8 0.6
18/04:30am 5.9 1.8 2.4 78 1.4 WNW 13 19 7 10 1013.5 1013.7 0.6
18/04:00am 5.8 0.6 2.3 78 1.4 WNW 19 24 10 13 1013.1 1013.3 0.6
18/03:30am 6.1 1.3 2.4 77 1.5 W 17 24 9 13 1012.8 1012.9 0.6
18/03:00am 4.6 0.9 2.5 86 0.9 NNW 11 15 6 8 1012.8 1012.9 0.6
18/02:30am 5.3 0.9 2.5 82 1.1 NNW 15 19 8 10 1012.6 1012.7 0.6
18/02:00am 5.6 1.5 2.3 79 1.3 NNW 13 19 7 10 1012.4 1012.5 0.6
18/01:30am 6.3 2.3 2.6 77 1.5 WNW 13 17 7 9 1012.3 1012.4 0.6
18/01:00am 5.7 2.1 2.7 81 1.2 NW 11 17 6 9 1012.1 1012.2 0.6
18/12:30am 5.3 1.2 2.3 81 1.2 NNW 13 17 7 9 1012.0 1012.1 0.6
18/12:00am 6.0 0.6 2.5 78 1.4 WNW 20 30 11 16 1011.2 1011.3 0.6
 
Date/Time
EST
Temp
°C
App
Temp
°C
Dew
Point
Rel
Hum
%
Delta-T
°C
Wind Press
QNH
hPa
Press
MSL
hPa
Rain
since 9 am
mm
Dir
 
Spd
km/h
Gust
km/h
Spd
kts
Gust
kts
17/11:30pm 5.3 0.9 2.5 82 1.1 NW 15 22 8 12 1011.0 1011.1 0.6
17/11:00pm 5.1 0.2 2.3 82 1.1 NW 17 24 9 13 1010.7 1010.8 0.6
17/10:30pm 4.7 0.6 2.2 84 1.0 NW 13 20 7 11 1010.3 1010.4 0.6
17/10:00pm 4.6 0.1 2.1 84 1.0 NW 15 24 8 13 1010.0 1010.1 0.6
17/09:30pm 4.6 -0.3 2.3 85 0.9 NW 17 30 9 16 1009.8 1009.9 0.6
17/09:00pm 4.7 0.2 2.4 85 0.9 NW 15 24 8 13 1009.8 1009.9 0.6
17/08:30pm 4.5 0.8 2.2 85 0.9 NNW 11 15 6 8 1009.5 1009.6 0.6
17/08:00pm 4.5 -0.8 1.9 83 1.0 WNW 19 30 10 16 1009.1 1009.2 0.6
17/07:30pm 5.0 0.1 2.0 81 1.2 WNW 17 30 9 16 1009.0 1009.1 0.2
17/07:00pm 3.8 1.0 1.8 87 0.8 WNW 6 9 3 5 1008.8 1008.9 0.2
17/06:30pm 4.7 0.9 1.9 82 1.1 NNW 11 17 6 9 1008.2 1008.3 0.2
17/06:00pm 4.9 1.1 1.9 81 1.2 NW 11 20 6 11 1007.8 1007.9 0.2
17/05:30pm 5.7 1.5 1.8 76 1.6 SW 13 20 7 11 1007.2 1007.3 0.2
17/05:18pm 8.4 0.2 0.6 58 3.1 SW 33 65 18 35 1007.4 1007.5 0.0
17/05:00pm 10.0 4.5 0.9 53 3.8 SW 19 24 10 13 1006.2 1006.3 0.0
17/04:30pm 10.0 5.1 2.1 58 3.3 S 17 24 9 13 1005.5 1005.6 0.0
17/04:00pm 9.2 5.2 2.8 64 2.7 W 13 22 7 12 1005.2 1005.3 0.0
17/03:30pm 8.7 3.6 3.9 72 2.1 W 20 33 11 18 1004.8 1004.9 0.0
17/03:24pm 7.9 1.1 3.0 71 2.1 W 28 43 15 23 1004.9 1005.0 0.0
17/03:00pm 9.6 5.7 3.4 65 2.7 WNW 13 19 7 10 1004.5 1004.7 0.0
17/02:30pm 9.8 3.2 2.2 59 3.2 SW 26 44 14 24 1004.3 1004.5 0.0
17/02:00pm 10.5 4.3 1.9 55 3.7 WSW 24 33 13 18 1003.8 1003.9 0.0
17/01:30pm 9.9 4.6 1.8 57 3.4 WSW 19 30 10 16 1003.9 1004.0 0.0
17/01:00pm 10.1 6.0 2.5 59 3.3 W 13 20 7 11 1003.9 1004.0 0.0
17/12:30pm 9.4 5.3 2.5 62 2.9 W 13 20 7 11 1004.1 1004.3 0.0
17/12:00pm 9.4 5.5 3.4 66 2.6 W 13 17 7 9 1004.3 1004.5 0.0
17/11:30am 8.3 4.0 3.4 71 2.1 WNW 15 20 8 11 1004.8 1004.9 0.0
17/11:00am 8.2 4.2 3.1 70 2.2 W 13 24 7 13 1004.4 1004.6 0.0
17/10:30am 8.2 4.0 4.0 75 1.8 WNW 15 26 8 14 1004.6 1004.8 0.0
17/10:00am 8.3 3.8 4.3 76 1.8 WNW 17 30 9 16 1004.3 1004.5 0.0
17/09:30am 8.2 3.8 4.6 78 1.6 NW 17 22 9 12 1004.1 1004.3 0.0
17/09:00am 8.8 3.5 4.8 76 1.8 W 22 26 12 14 1004.3 1004.5 -
17/08:30am 10.1 6.2 5.3 72 2.2 N 15 22 8 12 1004.1 1004.3 -
17/08:00am 8.4 5.6 5.3 81 1.4 NNE 9 13 5 7 1004.3 1004.5 -
17/07:30am 6.1 3.7 5.1 93 0.4 N 7 9 4 5 1004.5 1004.7 -
17/07:00am 5.0 2.0 4.3 95 0.3 N 9 11 5 6 1004.6 1004.8 -
17/06:30am 4.7 2.3 4.3 97 0.2 NW 6 7 3 4 1005.2 1005.3 -
17/06:00am 4.3 1.6 3.9 97 0.2 NNW 7 9 4 5 1005.4 1005.5 -
17/05:30am 3.8 1.6 3.4 97 0.2 NW 4 9 2 5 1005.5 1005.6 -
17/05:00am 3.4 0.7 2.7 95 0.3 NW 6 7 3 4 1005.6 1005.7 -
17/04:30am 3.7 2.2 2.8 94 0.4 CALM 0 4 0 2 1005.9 1006.0 -
17/04:00am 4.1 1.3 3.1 93 0.4 NNW 7 11 4 6 1006.0 1006.1 -
17/03:30am 4.4 1.3 3.7 95 0.3 N 9 13 5 7 1006.3 1006.4 -
17/03:00am 3.9 0.7 2.9 93 0.4 N 9 11 5 6 1006.7 1006.8 0.0
17/02:30am 4.8 1.8 3.9 94 0.4 N 9 13 5 7 1006.9 1007.0 -
17/02:00am 4.9 1.5 4.2 95 0.3 N 11 13 6 7 1007.2 1007.3 -
17/01:30am 5.4 2.1 4.7 95 0.3 N 11 13 6 7 1007.5 1007.6 -
17/01:00am 4.8 1.4 4.2 96 0.3 N 11 13 6 7 1007.8 1007.9 -
17/12:30am 5.0 2.0 4.3 95 0.3 NNW 9 13 5 7 1007.9 1008.0 -
17/12:00am 4.7 1.6 3.7 93 0.4 N 9 13 5 7 1007.9 1008.0 -
 
Date/Time
EST
Temp
°C
App
Temp
°C
Dew
Point
Rel
Hum
%
Delta-T
°C
Wind Press
QNH
hPa
Press
MSL
hPa
Rain
since 9 am
mm
Dir
 
Spd
km/h
Gust
km/h
Spd
kts
Gust
kts
16/11:30pm 6.2 3.4 5.3 94 0.4 N 9 15 5 8 1008.2 1008.3 -
16/11:00pm 4.7 2.6 4.0 95 0.3 NW 4 9 2 5 1008.3 1008.4 -
16/10:30pm 4.9 3.6 4.3 96 0.3 CALM 0 0 0 0 1008.3 1008.4 -
16/10:00pm 4.6 1.9 3.9 95 0.3 N 7 9 4 5 1008.7 1008.8 -
16/09:30pm 4.4 2.6 3.4 93 0.4 N 2 7 1 4 1008.8 1008.9 -
16/09:00pm 4.9 3.5 3.7 92 0.5 CALM 0 0 0 0 1008.8 1008.9 0.0
16/08:30pm 5.6 3.1 3.8 88 0.8 N 6 9 3 5 1008.8 1008.9 -
16/08:00pm 5.9 2.8 3.6 85 1.0 N 9 11 5 6 1008.8 1008.9 -
16/07:30pm 7.1 5.5 4.6 84 1.1 N 2 7 1 4 1008.7 1008.8 -
16/07:00pm 8.3 7.1 4.7 78 1.6 CALM 0 0 0 0 1008.6 1008.7 -
16/06:30pm 9.6 8.1 4.8 72 2.2 E 2 7 1 4 1008.3 1008.4 -
16/06:00pm 12.0 11.1 5.9 66 2.9 CALM 0 0 0 0 1008.3 1008.4 -
16/05:30pm 13.5 12.7 6.4 62 3.4 CALM 0 0 0 0 1008.3 1008.4 -
16/05:00pm 13.9 12.7 4.5 53 4.4 CALM 0 0 0 0 1008.1 1008.2 -
16/04:30pm 14.0 12.5 4.9 54 4.3 SE 2 6 1 3 1008.1 1008.2 -
16/04:00pm 14.2 11.5 3.7 49 4.8 S 7 9 4 5 1008.1 1008.2 -
16/03:30pm 14.2 11.2 3.9 50 4.7 S 9 11 5 6 1008.1 1008.2 -
16/03:00pm 14.9 11.9 4.3 49 4.9 SSW 9 11 5 6 1008.2 1008.3 -
16/02:30pm 14.6 11.6 4.0 49 4.9 S 9 11 5 6 1008.3 1008.4 0.0
16/02:00pm 14.7 12.2 3.5 47 5.1 S 6 9 3 5 1008.4 1008.5 0.0
16/01:30pm 14.0 11.7 5.6 57 4.0 ESE 7 11 4 6 1008.8 1008.9 0.0
16/01:00pm 13.4 10.4 4.0 53 4.3 SE 9 13 5 7 1009.3 1009.4 0.0
16/12:30pm 13.7 10.9 5.3 57 4.0 S 9 13 5 7 1009.9 1010.0 0.0
16/12:00pm 12.5 9.8 5.7 63 3.2 SE 9 13 5 7 1010.5 1010.6 0.0
16/11:30am 11.0 8.4 4.0 62 3.1 SE 7 11 4 6 1011.1 1011.2 0.0
16/11:00am 10.3 8.3 4.2 66 2.7 SW 4 9 2 5 1012.0 1012.1 0.0
16/10:30am 8.6 6.0 3.4 70 2.2 ESE 6 7 3 4 1012.6 1012.7 0.0
16/10:00am 7.7 5.2 3.6 75 1.8 ESE 6 9 3 5 1013.0 1013.1 0.0
16/09:30am 6.7 5.3 3.7 81 1.3 CALM 0 6 0 3 1013.5 1013.7 0.0
16/09:00am 4.6 3.2 3.3 91 0.5 CALM 0 0 0 0 1013.7 1013.9 0.2
16/08:30am 3.0 0.3 2.4 96 0.2 SSE 6 7 3 4 1014.0 1014.2 0.2
16/08:00am 2.2 0.1 1.9 98 0.1 NNE 2 7 1 4 1014.3 1014.5 0.2
16/07:30am 1.1 -0.7 1.1 100 0.0 CALM 0 0 0 0 1014.3 1014.5 0.2
16/07:00am -1.2 -3.4 -1.5 98 0.0 CALM 0 0 0 0 1014.2 1014.4 0.2
16/06:30am -1.3 -3.5 -1.6 98 0.0 CALM 0 0 0 0 1014.1 1014.3 0.2
16/06:00am -0.8 -2.9 -0.9 99 0.0 CALM 0 0 0 0 1014.1 1014.3 0.2

Other Formats:

Comma delimited format used in spreadsheet applications
http://www.bom.gov.au/fwo/IDT60801/IDT60801.94957.axf

JavaScript Object Notation format (JSON) in row-major order
http://www.bom.gov.au/fwo/IDT60801/IDT60801.94957.json